sensor_id;sensor_type;location;lat;lon;timestamp;temperature;humidity
8928;DHT22;4499;48.304;11.902;2023-05-07T00:00:24;11.20;99.90
8928;DHT22;4499;48.304;11.902;2023-05-07T00:02:52;11.20;99.90
8928;DHT22;4499;48.304;11.902;2023-05-07T00:05:21;11.10;99.90
8928;DHT22;4499;48.304;11.902;2023-05-07T00:07:49;11.20;99.90
8928;DHT22;4499;48.304;11.902;2023-05-07T00:10:17;11.10;99.90
8928;DHT22;4499;48.304;11.902;2023-05-07T00:12:46;11.10;99.90
8928;DHT22;4499;48.304;11.902;2023-05-07T00:15:15;11.10;99.90
8928;DHT22;4499;48.304;11.902;2023-05-07T00:17:43;11.10;99.90
8928;DHT22;4499;48.304;11.902;2023-05-07T00:20:12;11.10;99.90
8928;DHT22;4499;48.304;11.902;2023-05-07T00:22:40;11.10;99.90
8928;DHT22;4499;48.304;11.902;2023-05-07T00:25:08;11.00;99.90
8928;DHT22;4499;48.304;11.902;2023-05-07T00:27:36;11.00;99.90
8928;DHT22;4499;48.304;11.902;2023-05-07T00:30:07;11.00;99.90
8928;DHT22;4499;48.304;11.902;2023-05-07T00:32:36;11.00;99.90
8928;DHT22;4499;48.304;11.902;2023-05-07T00:35:05;11.00;99.90
8928;DHT22;4499;48.304;11.902;2023-05-07T00:37:34;11.00;99.90
8928;DHT22;4499;48.304;11.902;2023-05-07T00:40:03;11.00;99.90
8928;DHT22;4499;48.304;11.902;2023-05-07T00:42:34;11.00;99.90
8928;DHT22;4499;48.304;11.902;2023-05-07T00:45:02;11.00;99.90
8928;DHT22;4499;48.304;11.902;2023-05-07T00:47:32;11.00;99.90
8928;DHT22;4499;48.304;11.902;2023-05-07T00:50:00;11.00;99.90
8928;DHT22;4499;48.304;11.902;2023-05-07T00:52:29;11.00;99.90
8928;DHT22;4499;48.304;11.902;2023-05-07T00:54:57;10.90;99.90
8928;DHT22;4499;48.304;11.902;2023-05-07T00:57:27;10.90;99.90
8928;DHT22;4499;48.304;11.902;2023-05-07T00:59:56;10.90;99.90
8928;DHT22;4499;48.304;11.902;2023-05-07T01:02:29;10.90;99.90
8928;DHT22;4499;48.304;11.902;2023-05-07T01:05:00;10.90;99.90
8928;DHT22;4499;48.304;11.902;2023-05-07T01:07:29;10.90;99.90
8928;DHT22;4499;48.304;11.902;2023-05-07T01:09:58;10.90;99.90
8928;DHT22;4499;48.304;11.902;2023-05-07T01:12:27;10.80;99.90
8928;DHT22;4499;48.304;11.902;2023-05-07T01:14:56;10.80;99.90
8928;DHT22;4499;48.304;11.902;2023-05-07T01:17:24;10.80;99.90
8928;DHT22;4499;48.304;11.902;2023-05-07T01:19:52;10.70;99.90
8928;DHT22;4499;48.304;11.902;2023-05-07T01:22:29;10.80;99.90
8928;DHT22;4499;48.304;11.902;2023-05-07T01:24:59;10.80;99.90
8928;DHT22;4499;48.304;11.902;2023-05-07T01:27:28;10.80;99.90
8928;DHT22;4499;48.304;11.902;2023-05-07T01:29:56;10.80;99.90
8928;DHT22;4499;48.304;11.902;2023-05-07T01:32:29;10.80;99.90
8928;DHT22;4499;48.304;11.902;2023-05-07T01:35:00;10.70;99.90
8928;DHT22;4499;48.304;11.902;2023-05-07T01:37:30;10.80;99.90
8928;DHT22;4499;48.304;11.902;2023-05-07T01:39:58;10.70;99.90
8928;DHT22;4499;48.304;11.902;2023-05-07T01:42:27;10.70;99.90
8928;DHT22;4499;48.304;11.902;2023-05-07T01:44:56;10.70;99.90
8928;DHT22;4499;48.304;11.902;2023-05-07T01:47:25;10.70;99.90
8928;DHT22;4499;48.304;11.902;2023-05-07T01:49:54;10.70;99.90
8928;DHT22;4499;48.304;11.902;2023-05-07T01:52:22;10.70;99.90
8928;DHT22;4499;48.304;11.902;2023-05-07T01:54:53;10.70;99.90
8928;DHT22;4499;48.304;11.902;2023-05-07T01:57:21;10.70;99.90
8928;DHT22;4499;48.304;11.902;2023-05-07T01:59:49;10.70;99.90
8928;DHT22;4499;48.304;11.902;2023-05-07T02:02:17;10.60;99.90
8928;DHT22;4499;48.304;11.902;2023-05-07T02:04:45;10.70;99.90
8928;DHT22;4499;48.304;11.902;2023-05-07T02:07:13;10.60;99.90
8928;DHT22;4499;48.304;11.902;2023-05-07T02:09:41;10.60;99.90
8928;DHT22;4499;48.304;11.902;2023-05-07T02:12:10;10.60;99.90
8928;DHT22;4499;48.304;11.902;2023-05-07T02:14:38;10.60;99.90
8928;DHT22;4499;48.304;11.902;2023-05-07T02:17:07;10.50;99.90
8928;DHT22;4499;48.304;11.902;2023-05-07T02:19:35;10.50;99.90
8928;DHT22;4499;48.304;11.902;2023-05-07T02:22:03;10.50;99.90
8928;DHT22;4499;48.304;11.902;2023-05-07T02:24:31;10.40;99.90
8928;DHT22;4499;48.304;11.902;2023-05-07T02:26:59;10.50;99.90
8928;DHT22;4499;48.304;11.902;2023-05-07T02:29:28;10.50;99.90
8928;DHT22;4499;48.304;11.902;2023-05-07T02:31:56;10.50;99.90
8928;DHT22;4499;48.304;11.902;2023-05-07T02:34:24;10.50;99.90
8928;DHT22;4499;48.304;11.902;2023-05-07T02:36:52;10.50;99.90
8928;DHT22;4499;48.304;11.902;2023-05-07T02:39:20;10.40;99.90
8928;DHT22;4499;48.304;11.902;2023-05-07T02:41:48;10.50;99.90
8928;DHT22;4499;48.304;11.902;2023-05-07T02:44:16;10.40;99.90
8928;DHT22;4499;48.304;11.902;2023-05-07T02:46:46;10.40;99.90
8928;DHT22;4499;48.304;11.902;2023-05-07T02:49:14;10.40;99.90
8928;DHT22;4499;48.304;11.902;2023-05-07T02:51:42;10.40;99.90
8928;DHT22;4499;48.304;11.902;2023-05-07T02:54:10;10.40;99.90
8928;DHT22;4499;48.304;11.902;2023-05-07T02:56:38;10.40;99.90
8928;DHT22;4499;48.304;11.902;2023-05-07T02:59:06;10.40;99.90
8928;DHT22;4499;48.304;11.902;2023-05-07T03:01:34;10.40;99.90
8928;DHT22;4499;48.304;11.902;2023-05-07T03:04:04;10.30;99.90
8928;DHT22;4499;48.304;11.902;2023-05-07T03:06:32;10.30;99.90
8928;DHT22;4499;48.304;11.902;2023-05-07T03:09:00;10.30;99.90
8928;DHT22;4499;48.304;11.902;2023-05-07T03:11:28;10.30;99.90
8928;DHT22;4499;48.304;11.902;2023-05-07T03:13:56;10.30;99.90
8928;DHT22;4499;48.304;11.902;2023-05-07T03:16:24;10.30;99.90
8928;DHT22;4499;48.304;11.902;2023-05-07T03:18:52;10.20;99.90
8928;DHT22;4499;48.304;11.902;2023-05-07T03:21:22;10.20;99.90
8928;DHT22;4499;48.304;11.902;2023-05-07T03:23:50;10.20;99.90
8928;DHT22;4499;48.304;11.902;2023-05-07T03:26:18;10.20;99.90
8928;DHT22;4499;48.304;11.902;2023-05-07T03:28:47;10.10;99.90
8928;DHT22;4499;48.304;11.902;2023-05-07T03:31:15;10.10;99.90
8928;DHT22;4499;48.304;11.902;2023-05-07T03:33:51;10.10;99.90
8928;DHT22;4499;48.304;11.902;2023-05-07T03:36:19;10.10;99.90
8928;DHT22;4499;48.304;11.902;2023-05-07T03:38:49;10.00;99.90
8928;DHT22;4499;48.304;11.902;2023-05-07T03:41:17;10.00;99.90
8928;DHT22;4499;48.304;11.902;2023-05-07T03:43:45;10.00;99.90
8928;DHT22;4499;48.304;11.902;2023-05-07T03:46:13;10.00;99.90
8928;DHT22;4499;48.304;11.902;2023-05-07T03:48:41;10.00;99.90
8928;DHT22;4499;48.304;11.902;2023-05-07T03:51:09;10.00;99.90
8928;DHT22;4499;48.304;11.902;2023-05-07T03:53:38;10.00;99.90
8928;DHT22;4499;48.304;11.902;2023-05-07T03:56:07;10.00;99.90
8928;DHT22;4499;48.304;11.902;2023-05-07T03:58:35;10.00;99.90
8928;DHT22;4499;48.304;11.902;2023-05-07T04:01:03;10.00;99.90
8928;DHT22;4499;48.304;11.902;2023-05-07T04:03:31;10.00;99.90
8928;DHT22;4499;48.304;11.902;2023-05-07T04:06:00;10.10;99.90
8928;DHT22;4499;48.304;11.902;2023-05-07T04:08:28;10.10;99.90
8928;DHT22;4499;48.304;11.902;2023-05-07T04:10:56;10.10;99.90
8928;DHT22;4499;48.304;11.902;2023-05-07T04:13:26;10.10;99.90
8928;DHT22;4499;48.304;11.902;2023-05-07T04:15:55;10.20;99.90
8928;DHT22;4499;48.304;11.902;2023-05-07T04:18:23;10.20;99.90
8928;DHT22;4499;48.304;11.902;2023-05-07T04:20:51;10.20;99.90
8928;DHT22;4499;48.304;11.902;2023-05-07T04:23:19;10.20;99.90
8928;DHT22;4499;48.304;11.902;2023-05-07T04:25:47;10.20;99.90
8928;DHT22;4499;48.304;11.902;2023-05-07T04:28:16;10.20;99.90
8928;DHT22;4499;48.304;11.902;2023-05-07T04:30:45;10.20;99.90
8928;DHT22;4499;48.304;11.902;2023-05-07T04:33:14;10.30;99.90
8928;DHT22;4499;48.304;11.902;2023-05-07T04:35:43;10.20;99.90
8928;DHT22;4499;48.304;11.902;2023-05-07T04:38:11;10.30;99.90
8928;DHT22;4499;48.304;11.902;2023-05-07T04:40:39;10.30;99.90
8928;DHT22;4499;48.304;11.902;2023-05-07T04:43:08;10.30;99.90
8928;DHT22;4499;48.304;11.902;2023-05-07T04:45:36;10.40;99.90
8928;DHT22;4499;48.304;11.902;2023-05-07T04:48:09;10.40;99.90
8928;DHT22;4499;48.304;11.902;2023-05-07T04:50:37;10.50;99.90
8928;DHT22;4499;48.304;11.902;2023-05-07T04:53:05;10.50;99.90
8928;DHT22;4499;48.304;11.902;2023-05-07T04:55:33;10.60;99.90
8928;DHT22;4499;48.304;11.902;2023-05-07T04:58:01;10.60;99.90
8928;DHT22;4499;48.304;11.902;2023-05-07T05:00:29;10.70;99.90
8928;DHT22;4499;48.304;11.902;2023-05-07T05:02:57;10.80;99.90
8928;DHT22;4499;48.304;11.902;2023-05-07T05:05:27;10.80;99.90
8928;DHT22;4499;48.304;11.902;2023-05-07T05:07:55;10.90;99.90
8928;DHT22;4499;48.304;11.902;2023-05-07T05:10:23;11.00;99.90
8928;DHT22;4499;48.304;11.902;2023-05-07T05:12:52;11.00;99.90
8928;DHT22;4499;48.304;11.902;2023-05-07T05:15:20;11.10;99.90
8928;DHT22;4499;48.304;11.902;2023-05-07T05:17:48;11.10;99.90
8928;DHT22;4499;48.304;11.902;2023-05-07T05:20:16;11.20;99.90
8928;DHT22;4499;48.304;11.902;2023-05-07T05:22:46;11.30;99.90
8928;DHT22;4499;48.304;11.902;2023-05-07T05:25:14;11.40;99.90
8928;DHT22;4499;48.304;11.902;2023-05-07T05:27:42;11.50;99.90
8928;DHT22;4499;48.304;11.902;2023-05-07T05:30:11;11.50;99.90
8928;DHT22;4499;48.304;11.902;2023-05-07T05:32:39;11.60;99.90
8928;DHT22;4499;48.304;11.902;2023-05-07T05:35:08;11.80;99.90
8928;DHT22;4499;48.304;11.902;2023-05-07T05:37:36;11.90;99.90
8928;DHT22;4499;48.304;11.902;2023-05-07T05:40:06;12.00;99.90
8928;DHT22;4499;48.304;11.902;2023-05-07T05:42:35;12.10;99.90
8928;DHT22;4499;48.304;11.902;2023-05-07T05:45:04;12.20;99.90
8928;DHT22;4499;48.304;11.902;2023-05-07T05:47:32;12.30;99.90
8928;DHT22;4499;48.304;11.902;2023-05-07T05:50:01;12.50;99.90
8928;DHT22;4499;48.304;11.902;2023-05-07T05:52:29;12.70;99.90
8928;DHT22;4499;48.304;11.902;2023-05-07T05:54:57;13.10;99.90
8928;DHT22;4499;48.304;11.902;2023-05-07T05:57:27;13.80;99.90
8928;DHT22;4499;48.304;11.902;2023-05-07T05:59:55;14.80;99.90
8928;DHT22;4499;48.304;11.902;2023-05-07T06:02:23;15.80;99.90
8928;DHT22;4499;48.304;11.902;2023-05-07T06:04:52;16.80;99.90
8928;DHT22;4499;48.304;11.902;2023-05-07T06:07:20;17.50;99.90
8928;DHT22;4499;48.304;11.902;2023-05-07T06:09:48;18.20;99.90
8928;DHT22;4499;48.304;11.902;2023-05-07T06:12:17;19.20;99.90
8928;DHT22;4499;48.304;11.902;2023-05-07T06:14:46;19.70;99.90
8928;DHT22;4499;48.304;11.902;2023-05-07T06:17:14;20.00;99.90
8928;DHT22;4499;48.304;11.902;2023-05-07T06:19:45;19.70;99.90
8928;DHT22;4499;48.304;11.902;2023-05-07T06:22:13;19.80;99.90
8928;DHT22;4499;48.304;11.902;2023-05-07T06:24:41;20.30;99.90
8928;DHT22;4499;48.304;11.902;2023-05-07T06:27:09;20.50;99.90
8928;DHT22;4499;48.304;11.902;2023-05-07T06:29:37;20.70;99.90
8928;DHT22;4499;48.304;11.902;2023-05-07T06:32:10;20.90;99.90
8928;DHT22;4499;48.304;11.902;2023-05-07T06:34:39;22.00;99.90
8928;DHT22;4499;48.304;11.902;2023-05-07T06:37:07;22.20;99.90
8928;DHT22;4499;48.304;11.902;2023-05-07T06:39:36;22.50;99.90
8928;DHT22;4499;48.304;11.902;2023-05-07T06:42:04;22.40;99.90
8928;DHT22;4499;48.304;11.902;2023-05-07T06:44:32;22.30;99.90
8928;DHT22;4499;48.304;11.902;2023-05-07T06:47:00;23.40;99.90
8928;DHT22;4499;48.304;11.902;2023-05-07T06:49:30;24.50;99.90
8928;DHT22;4499;48.304;11.902;2023-05-07T06:51:58;25.60;99.90
8928;DHT22;4499;48.304;11.902;2023-05-07T06:54:26;25.50;98.00
8928;DHT22;4499;48.304;11.902;2023-05-07T06:56:55;25.20;99.40
8928;DHT22;4499;48.304;11.902;2023-05-07T06:59:23;25.70;98.00
8928;DHT22;4499;48.304;11.902;2023-05-07T07:01:51;25.90;95.10
8928;DHT22;4499;48.304;11.902;2023-05-07T07:04:20;25.50;96.60
8928;DHT22;4499;48.304;11.902;2023-05-07T07:06:52;25.60;96.30
8928;DHT22;4499;48.304;11.902;2023-05-07T07:09:20;26.40;94.50
8928;DHT22;4499;48.304;11.902;2023-05-07T07:11:49;26.90;93.70
8928;DHT22;4499;48.304;11.902;2023-05-07T07:14:18;26.70;93.80
8928;DHT22;4499;48.304;11.902;2023-05-07T07:16:46;27.40;93.40
8928;DHT22;4499;48.304;11.902;2023-05-07T07:19:15;27.60;93.00
8928;DHT22;4499;48.304;11.902;2023-05-07T07:21:43;27.90;91.00
8928;DHT22;4499;48.304;11.902;2023-05-07T07:24:13;28.00;90.60
8928;DHT22;4499;48.304;11.902;2023-05-07T07:26:45;27.60;88.60
8928;DHT22;4499;48.304;11.902;2023-05-07T07:29:13;27.80;87.70
8928;DHT22;4499;48.304;11.902;2023-05-07T07:31:41;27.80;90.00
8928;DHT22;4499;48.304;11.902;2023-05-07T07:34:10;27.40;87.50
8928;DHT22;4499;48.304;11.902;2023-05-07T07:36:38;27.40;88.00
8928;DHT22;4499;48.304;11.902;2023-05-07T07:39:14;28.30;84.70
8928;DHT22;4499;48.304;11.902;2023-05-07T07:41:42;29.00;84.40
8928;DHT22;4499;48.304;11.902;2023-05-07T07:44:10;29.50;82.10
8928;DHT22;4499;48.304;11.902;2023-05-07T07:46:42;29.30;77.70
8928;DHT22;4499;48.304;11.902;2023-05-07T07:49:10;28.20;79.80
8928;DHT22;4499;48.304;11.902;2023-05-07T07:51:38;28.80;82.00
8928;DHT22;4499;48.304;11.902;2023-05-07T07:54:06;28.80;82.70
8928;DHT22;4499;48.304;11.902;2023-05-07T07:56:36;28.20;78.50
8928;DHT22;4499;48.304;11.902;2023-05-07T07:59:05;28.10;83.40
8928;DHT22;4499;48.304;11.902;2023-05-07T08:01:33;28.70;76.70
8928;DHT22;4499;48.304;11.902;2023-05-07T08:04:01;29.30;77.50
8928;DHT22;4499;48.304;11.902;2023-05-07T08:06:30;28.70;77.60
8928;DHT22;4499;48.304;11.902;2023-05-07T08:08:58;29.10;78.50
8928;DHT22;4499;48.304;11.902;2023-05-07T08:11:27;29.20;77.40
8928;DHT22;4499;48.304;11.902;2023-05-07T08:13:57;28.70;80.30
8928;DHT22;4499;48.304;11.902;2023-05-07T08:16:25;29.60;78.80
8928;DHT22;4499;48.304;11.902;2023-05-07T08:18:54;29.50;79.60
8928;DHT22;4499;48.304;11.902;2023-05-07T08:21:22;28.30;78.80
8928;DHT22;4499;48.304;11.902;2023-05-07T08:23:50;28.80;78.50
8928;DHT22;4499;48.304;11.902;2023-05-07T08:26:18;29.50;77.90
8928;DHT22;4499;48.304;11.902;2023-05-07T08:28:47;28.80;79.50
8928;DHT22;4499;48.304;11.902;2023-05-07T08:31:16;28.80;80.20
8928;DHT22;4499;48.304;11.902;2023-05-07T08:33:44;29.80;77.70
8928;DHT22;4499;48.304;11.902;2023-05-07T08:36:12;30.40;74.40
8928;DHT22;4499;48.304;11.902;2023-05-07T08:38:41;30.80;73.00
8928;DHT22;4499;48.304;11.902;2023-05-07T08:41:11;29.40;73.40
8928;DHT22;4499;48.304;11.902;2023-05-07T08:43:40;28.80;75.30
8928;DHT22;4499;48.304;11.902;2023-05-07T08:46:09;28.40;77.70
8928;DHT22;4499;48.304;11.902;2023-05-07T08:48:39;28.60;77.10
8928;DHT22;4499;48.304;11.902;2023-05-07T08:51:12;29.20;75.40
8928;DHT22;4499;48.304;11.902;2023-05-07T08:53:41;29.30;76.80
8928;DHT22;4499;48.304;11.902;2023-05-07T08:56:09;29.40;77.20
8928;DHT22;4499;48.304;11.902;2023-05-07T08:58:38;30.00;75.40
8928;DHT22;4499;48.304;11.902;2023-05-07T09:01:08;29.90;73.60
8928;DHT22;4499;48.304;11.902;2023-05-07T09:03:39;30.40;73.20
8928;DHT22;4499;48.304;11.902;2023-05-07T09:06:07;30.70;69.90
8928;DHT22;4499;48.304;11.902;2023-05-07T09:08:35;31.30;66.60
8928;DHT22;4499;48.304;11.902;2023-05-07T09:11:03;29.50;67.00
8928;DHT22;4499;48.304;11.902;2023-05-07T09:13:31;29.80;66.90
8928;DHT22;4499;48.304;11.902;2023-05-07T09:16:10;30.10;64.60
8928;DHT22;4499;48.304;11.902;2023-05-07T09:18:43;30.60;60.70
8928;DHT22;4499;48.304;11.902;2023-05-07T09:21:12;29.80;66.20
8928;DHT22;4499;48.304;11.902;2023-05-07T09:23:43;30.00;63.50
8928;DHT22;4499;48.304;11.902;2023-05-07T09:26:11;30.10;61.00
8928;DHT22;4499;48.304;11.902;2023-05-07T09:28:40;29.30;63.10
8928;DHT22;4499;48.304;11.902;2023-05-07T09:31:09;29.20;65.30
8928;DHT22;4499;48.304;11.902;2023-05-07T09:33:38;29.10;62.20
8928;DHT22;4499;48.304;11.902;2023-05-07T09:36:09;28.10;66.30
8928;DHT22;4499;48.304;11.902;2023-05-07T09:38:37;27.90;69.70
8928;DHT22;4499;48.304;11.902;2023-05-07T09:41:07;28.20;68.80
8928;DHT22;4499;48.304;11.902;2023-05-07T09:43:36;28.70;68.20
8928;DHT22;4499;48.304;11.902;2023-05-07T09:46:07;28.90;66.80
8928;DHT22;4499;48.304;11.902;2023-05-07T09:48:38;29.50;69.00
8928;DHT22;4499;48.304;11.902;2023-05-07T09:51:18;29.40;64.60
8928;DHT22;4499;48.304;11.902;2023-05-07T09:53:50;29.50;64.80
8928;DHT22;4499;48.304;11.902;2023-05-07T09:56:20;28.90;64.80
8928;DHT22;4499;48.304;11.902;2023-05-07T09:58:49;28.60;69.70
8928;DHT22;4499;48.304;11.902;2023-05-07T10:01:20;28.30;65.10
8928;DHT22;4499;48.304;11.902;2023-05-07T10:03:50;28.10;65.70
8928;DHT22;4499;48.304;11.902;2023-05-07T10:06:20;28.70;66.70
8928;DHT22;4499;48.304;11.902;2023-05-07T10:08:49;28.40;68.10
8928;DHT22;4499;48.304;11.902;2023-05-07T10:11:18;28.40;61.70
8928;DHT22;4499;48.304;11.902;2023-05-07T10:13:46;28.70;61.20
8928;DHT22;4499;48.304;11.902;2023-05-07T10:16:16;28.90;62.40
8928;DHT22;4499;48.304;11.902;2023-05-07T10:18:45;28.80;59.60
8928;DHT22;4499;48.304;11.902;2023-05-07T10:21:16;28.10;59.70
8928;DHT22;4499;48.304;11.902;2023-05-07T10:23:54;28.80;60.20
8928;DHT22;4499;48.304;11.902;2023-05-07T10:26:32;28.20;60.60
8928;DHT22;4499;48.304;11.902;2023-05-07T10:29:07;28.90;61.50
8928;DHT22;4499;48.304;11.902;2023-05-07T10:31:52;28.30;60.90
8928;DHT22;4499;48.304;11.902;2023-05-07T10:34:28;28.40;62.60
8928;DHT22;4499;48.304;11.902;2023-05-07T10:36:57;29.00;60.20
8928;DHT22;4499;48.304;11.902;2023-05-07T10:39:27;28.40;58.70
8928;DHT22;4499;48.304;11.902;2023-05-07T10:41:55;27.70;59.90
8928;DHT22;4499;48.304;11.902;2023-05-07T10:44:27;27.70;62.50
8928;DHT22;4499;48.304;11.902;2023-05-07T10:47:06;27.80;59.00
8928;DHT22;4499;48.304;11.902;2023-05-07T10:49:37;26.80;61.50
8928;DHT22;4499;48.304;11.902;2023-05-07T10:52:25;26.40;67.50
8928;DHT22;4499;48.304;11.902;2023-05-07T10:57:54;26.50;66.00
8928;DHT22;4499;48.304;11.902;2023-05-07T11:00:41;26.80;65.10
8928;DHT22;4499;48.304;11.902;2023-05-07T11:03:10;26.50;66.80
8928;DHT22;4499;48.304;11.902;2023-05-07T11:05:39;27.20;69.90
8928;DHT22;4499;48.304;11.902;2023-05-07T11:08:08;27.10;64.20
8928;DHT22;4499;48.304;11.902;2023-05-07T11:10:50;27.70;64.20
8928;DHT22;4499;48.304;11.902;2023-05-07T11:13:43;28.20;61.30
8928;DHT22;4499;48.304;11.902;2023-05-07T11:16:18;27.60;61.00
8928;DHT22;4499;48.304;11.902;2023-05-07T11:18:47;26.90;63.50
8928;DHT22;4499;48.304;11.902;2023-05-07T11:21:32;27.00;65.90
8928;DHT22;4499;48.304;11.902;2023-05-07T11:24:01;26.30;66.40
8928;DHT22;4499;48.304;11.902;2023-05-07T11:26:31;25.70;68.40
8928;DHT22;4499;48.304;11.902;2023-05-07T11:29:00;26.00;69.30
8928;DHT22;4499;48.304;11.902;2023-05-07T11:31:29;25.60;67.00
8928;DHT22;4499;48.304;11.902;2023-05-07T11:33:57;25.10;68.90
8928;DHT22;4499;48.304;11.902;2023-05-07T11:36:30;24.80;71.20
8928;DHT22;4499;48.304;11.902;2023-05-07T11:38:59;24.60;70.70
8928;DHT22;4499;48.304;11.902;2023-05-07T11:41:33;24.20;72.30
8928;DHT22;4499;48.304;11.902;2023-05-07T11:44:04;24.30;73.40
8928;DHT22;4499;48.304;11.902;2023-05-07T11:46:32;24.40;72.70
8928;DHT22;4499;48.304;11.902;2023-05-07T11:49:01;24.20;71.10
8928;DHT22;4499;48.304;11.902;2023-05-07T11:51:30;24.60;72.00
8928;DHT22;4499;48.304;11.902;2023-05-07T11:53:58;24.50;72.70
8928;DHT22;4499;48.304;11.902;2023-05-07T11:56:26;24.60;75.20
8928;DHT22;4499;48.304;11.902;2023-05-07T11:58:54;25.20;76.40
8928;DHT22;4499;48.304;11.902;2023-05-07T12:01:24;25.50;74.80
8928;DHT22;4499;48.304;11.902;2023-05-07T12:03:52;26.00;75.10
8928;DHT22;4499;48.304;11.902;2023-05-07T12:06:20;26.00;76.60
8928;DHT22;4499;48.304;11.902;2023-05-07T12:08:48;26.10;69.70
8928;DHT22;4499;48.304;11.902;2023-05-07T12:11:22;25.70;71.30
8928;DHT22;4499;48.304;11.902;2023-05-07T12:13:53;25.50;75.10
8928;DHT22;4499;48.304;11.902;2023-05-07T12:16:26;25.40;74.20
8928;DHT22;4499;48.304;11.902;2023-05-07T12:18:55;24.80;74.80
8928;DHT22;4499;48.304;11.902;2023-05-07T12:21:25;25.10;74.90
8928;DHT22;4499;48.304;11.902;2023-05-07T12:23:53;24.70;72.80
8928;DHT22;4499;48.304;11.902;2023-05-07T12:26:22;24.40;78.90
8928;DHT22;4499;48.304;11.902;2023-05-07T12:28:51;24.30;75.10
8928;DHT22;4499;48.304;11.902;2023-05-07T12:31:19;24.50;76.40
8928;DHT22;4499;48.304;11.902;2023-05-07T12:33:49;24.80;75.00
8928;DHT22;4499;48.304;11.902;2023-05-07T12:36:18;24.80;73.00
8928;DHT22;4499;48.304;11.902;2023-05-07T12:38:49;24.80;73.40
8928;DHT22;4499;48.304;11.902;2023-05-07T12:41:17;24.40;69.80
8928;DHT22;4499;48.304;11.902;2023-05-07T12:43:46;24.40;74.90
8928;DHT22;4499;48.304;11.902;2023-05-07T12:46:14;24.10;71.50
8928;DHT22;4499;48.304;11.902;2023-05-07T12:48:44;24.10;75.20
8928;DHT22;4499;48.304;11.902;2023-05-07T12:51:15;24.30;70.50
8928;DHT22;4499;48.304;11.902;2023-05-07T12:53:43;24.00;71.00
8928;DHT22;4499;48.304;11.902;2023-05-07T12:56:11;23.90;69.60
8928;DHT22;4499;48.304;11.902;2023-05-07T12:58:43;23.90;75.70
8928;DHT22;4499;48.304;11.902;2023-05-07T13:01:11;24.20;74.40
8928;DHT22;4499;48.304;11.902;2023-05-07T13:03:48;24.30;70.10
8928;DHT22;4499;48.304;11.902;2023-05-07T13:06:18;24.20;69.80
8928;DHT22;4499;48.304;11.902;2023-05-07T13:08:46;24.10;71.00
8928;DHT22;4499;48.304;11.902;2023-05-07T13:11:14;24.20;74.10
8928;DHT22;4499;48.304;11.902;2023-05-07T13:13:42;24.30;72.10
8928;DHT22;4499;48.304;11.902;2023-05-07T13:16:11;24.30;72.40
8928;DHT22;4499;48.304;11.902;2023-05-07T13:18:40;24.20;70.20
8928;DHT22;4499;48.304;11.902;2023-05-07T13:21:10;24.20;68.80
8928;DHT22;4499;48.304;11.902;2023-05-07T13:23:41;24.20;72.80
8928;DHT22;4499;48.304;11.902;2023-05-07T13:26:09;24.20;72.20
8928;DHT22;4499;48.304;11.902;2023-05-07T13:28:52;24.00;70.70
8928;DHT22;4499;48.304;11.902;2023-05-07T13:31:20;24.30;71.50
8928;DHT22;4499;48.304;11.902;2023-05-07T13:33:48;24.30;68.10
8928;DHT22;4499;48.304;11.902;2023-05-07T13:36:16;24.20;71.90
8928;DHT22;4499;48.304;11.902;2023-05-07T13:38:46;24.00;71.10
8928;DHT22;4499;48.304;11.902;2023-05-07T13:41:14;24.00;72.50
8928;DHT22;4499;48.304;11.902;2023-05-07T13:43:42;24.00;70.30
8928;DHT22;4499;48.304;11.902;2023-05-07T13:46:10;24.10;70.80
8928;DHT22;4499;48.304;11.902;2023-05-07T13:48:38;23.80;68.30
8928;DHT22;4499;48.304;11.902;2023-05-07T13:51:07;23.80;72.10
8928;DHT22;4499;48.304;11.902;2023-05-07T13:53:35;23.60;69.10
8928;DHT22;4499;48.304;11.902;2023-05-07T13:56:05;23.60;72.20
8928;DHT22;4499;48.304;11.902;2023-05-07T13:58:33;23.30;69.80
8928;DHT22;4499;48.304;11.902;2023-05-07T14:01:10;23.20;70.40
8928;DHT22;4499;48.304;11.902;2023-05-07T14:03:39;23.10;71.50
8928;DHT22;4499;48.304;11.902;2023-05-07T14:06:07;22.90;77.20
8928;DHT22;4499;48.304;11.902;2023-05-07T14:08:35;23.10;73.90
8928;DHT22;4499;48.304;11.902;2023-05-07T14:11:05;23.10;76.70
8928;DHT22;4499;48.304;11.902;2023-05-07T14:13:33;23.40;76.40
8928;DHT22;4499;48.304;11.902;2023-05-07T14:16:01;23.50;72.40
8928;DHT22;4499;48.304;11.902;2023-05-07T14:18:30;23.60;72.50
8928;DHT22;4499;48.304;11.902;2023-05-07T14:21:01;23.70;71.00
8928;DHT22;4499;48.304;11.902;2023-05-07T14:23:29;23.80;75.50
8928;DHT22;4499;48.304;11.902;2023-05-07T14:25:57;23.70;70.20
8928;DHT22;4499;48.304;11.902;2023-05-07T14:28:27;23.60;72.10
8928;DHT22;4499;48.304;11.902;2023-05-07T14:30:55;23.60;72.10
8928;DHT22;4499;48.304;11.902;2023-05-07T14:33:23;23.50;72.60
8928;DHT22;4499;48.304;11.902;2023-05-07T14:35:51;23.30;67.90
8928;DHT22;4499;48.304;11.902;2023-05-07T14:38:19;23.40;71.90
8928;DHT22;4499;48.304;11.902;2023-05-07T14:40:47;23.40;71.70
8928;DHT22;4499;48.304;11.902;2023-05-07T14:43:15;23.40;74.50
8928;DHT22;4499;48.304;11.902;2023-05-07T14:45:45;23.30;71.00
8928;DHT22;4499;48.304;11.902;2023-05-07T14:48:14;23.40;71.70
8928;DHT22;4499;48.304;11.902;2023-05-07T14:50:42;23.20;71.10
8928;DHT22;4499;48.304;11.902;2023-05-07T14:53:10;23.10;71.70
8928;DHT22;4499;48.304;11.902;2023-05-07T14:55:38;23.30;75.40
8928;DHT22;4499;48.304;11.902;2023-05-07T14:58:06;23.30;73.20
8928;DHT22;4499;48.304;11.902;2023-05-07T15:00:34;23.30;74.20
8928;DHT22;4499;48.304;11.902;2023-05-07T15:03:07;23.40;75.30
8928;DHT22;4499;48.304;11.902;2023-05-07T15:05:37;23.30;72.80
8928;DHT22;4499;48.304;11.902;2023-05-07T15:08:06;23.00;71.80
8928;DHT22;4499;48.304;11.902;2023-05-07T15:10:35;22.70;73.60
8928;DHT22;4499;48.304;11.902;2023-05-07T15:13:08;22.80;75.30
8928;DHT22;4499;48.304;11.902;2023-05-07T15:15:42;22.70;72.70
8928;DHT22;4499;48.304;11.902;2023-05-07T15:18:12;22.50;72.20
8928;DHT22;4499;48.304;11.902;2023-05-07T15:20:41;22.40;74.10
8928;DHT22;4499;48.304;11.902;2023-05-07T15:23:09;22.20;73.10
8928;DHT22;4499;48.304;11.902;2023-05-07T15:25:39;22.10;74.20
8928;DHT22;4499;48.304;11.902;2023-05-07T15:28:07;22.10;78.30
8928;DHT22;4499;48.304;11.902;2023-05-07T15:30:35;22.10;76.00
8928;DHT22;4499;48.304;11.902;2023-05-07T15:33:03;22.00;76.10
8928;DHT22;4499;48.304;11.902;2023-05-07T15:35:33;21.90;76.70
8928;DHT22;4499;48.304;11.902;2023-05-07T15:38:01;22.00;78.30
8928;DHT22;4499;48.304;11.902;2023-05-07T15:40:30;22.00;79.30
8928;DHT22;4499;48.304;11.902;2023-05-07T15:42:59;21.90;78.90
8928;DHT22;4499;48.304;11.902;2023-05-07T15:45:27;21.80;79.30
8928;DHT22;4499;48.304;11.902;2023-05-07T15:47:56;21.80;81.20
8928;DHT22;4499;48.304;11.902;2023-05-07T15:50:24;21.60;81.40
8928;DHT22;4499;48.304;11.902;2023-05-07T15:52:54;21.60;84.50
8928;DHT22;4499;48.304;11.902;2023-05-07T15:55:23;21.60;81.20
8928;DHT22;4499;48.304;11.902;2023-05-07T15:57:51;21.40;82.00
8928;DHT22;4499;48.304;11.902;2023-05-07T16:00:21;21.50;84.00